Time;durP1;ratioP1;P1;durP2;ratioP2;P2;SDS_P1;SDS_P2;PMS_P1;PMS_P2;Temp;Humidity;BMP_temperature;BMP_pressure;BME280_temperature;BME280_humidity;BME280_pressure;Samples;Min_cycle;Max_cycle;Signal;HPM_P1;HPM_P2
2024/03/03 00:02:11;;;;;;;12.30;6.30;;;;;;;-147.86;100.00;26124.60;105880;1254;60440;-55
2024/03/03 00:04:40;;;;;;;15.80;5.80;;;;;;;-147.86;100.00;24722.87;105877;1257;60387;-53
2024/03/03 00:07:07;;;;;;;11.90;4.60;;;;;;;-147.86;100.00;25990.13;105874;1258;71804;-51
2024/03/03 00:09:35;;;;;;;7.30;4.10;;;;;;;-147.86;100.00;29889.92;105884;1257;64366;-52
2024/03/03 00:12:03;;;;;;;10.20;3.70;;;;;;;-147.86;100.00;28938.51;105863;1262;72614;-51
2024/03/03 00:14:31;;;;;;;13.00;5.20;;;;;;;-147.86;100.00;25441.55;105872;1257;60873;-54
2024/03/03 00:16:58;;;;;;;9.80;4.40;;;;;;;-147.86;100.00;20169.86;105878;1257;60412;-56
2024/03/03 00:19:26;;;;;;;12.00;3.80;;;;;;;-147.86;100.00;14143.04;105857;1253;72623;-55
2024/03/03 00:21:54;;;;;;;10.00;3.60;;;;;;;-147.86;100.00;8805.87;105840;1255;63492;-53
2024/03/03 00:24:22;;;;;;;5.80;3.90;;;;;;;-147.86;100.00;3616.01;105891;1254;71356;-47
2024/03/03 00:26:50;;;;;;;5.00;3.20;;;;;;;-147.86;100.00;-683.84;105850;1254;60559;-55
2024/03/03 00:29:18;;;;;;;11.30;3.80;;;;;;;-147.86;100.00;-4154.59;105473;1257;60504;-50
2024/03/03 00:32:49;;;;;;;4.50;3.20;;;;;;;-147.86;100.00;-13147.04;102849;1289;600216;-52
2024/03/03 00:35:16;;;;;;;9.40;3.30;;;;;;;-147.86;100.00;-17609.17;105118;1267;59331;-54
2024/03/03 00:37:44;;;;;;;7.50;3.70;;;;;;;-147.86;100.00;-17609.17;104842;1264;59347;-53
2024/03/03 00:40:12;;;;;;;20.30;3.90;;;;;;;-147.86;100.00;-17609.17;105096;1262;72243;-55
2024/03/03 00:42:40;;;;;;;6.80;3.70;;;;;;;-147.86;100.00;-17609.17;105145;1263;63566;-54
2024/03/03 00:45:08;;;;;;;6.20;3.80;;;;;;;-147.86;100.00;-17609.17;105054;1264;70607;-57
2024/03/03 00:47:36;;;;;;;3.80;2.90;;;;;;;-147.86;100.00;-17609.17;105025;1261;280533;-56
2024/03/03 00:50:05;;;;;;;3.20;2.60;;;;;;;-147.86;100.00;-17609.17;105215;1260;60113;-57
2024/03/03 00:52:32;;;;;;;7.50;3.30;;;;;;;-147.86;100.00;-17609.17;105240;1267;72215;-52
2024/03/03 00:55:00;;;;;;;7.50;3.30;;;;;;;-147.86;100.00;-17609.17;105234;1260;65232;-53
2024/03/03 00:57:28;;;;;;;5.70;3.30;;;;;;;-147.86;100.00;-17609.17;105289;1264;70614;-50
2024/03/03 00:59:56;;;;;;;7.50;3.50;;;;;;;-147.86;100.00;-17609.17;105146;1263;59628;-54
2024/03/03 01:02:23;;;;;;;5.30;2.80;;;;;;;-147.86;100.00;-17609.17;105101;1267;59747;-53
2024/03/03 01:04:51;;;;;;;5.00;3.20;;;;;;;-147.86;100.00;-17609.17;105000;1261;71790;-54
2024/03/03 01:07:19;;;;;;;11.50;3.00;;;;;;;-147.86;100.00;-17609.17;105138;1267;63149;-52
2024/03/03 01:09:47;;;;;;;7.40;3.30;;;;;;;-147.86;100.00;-17609.17;105147;1267;71372;-53
2024/03/03 01:12:16;;;;;;;5.90;3.50;;;;;;;-147.86;100.00;-17609.17;104967;1268;59640;-52
2024/03/03 01:14:43;;;;;;;6.50;3.50;;;;;;;-147.86;100.00;-17609.17;105202;1262;60023;-53
2024/03/03 01:17:11;;;;;;;7.30;3.30;;;;;;;-147.86;100.00;-17609.17;105141;1263;73113;-52
2024/03/03 01:19:39;;;;;;;7.30;2.90;;;;;;;-147.86;100.00;-17609.17;105169;1263;63622;-50
2024/03/03 01:22:07;;;;;;;5.80;3.10;;;;;;;-147.86;100.00;-17609.17;105123;1267;71347;-51
2024/03/03 01:24:37;;;;;;;7.30;4.00;;;;;;;-147.86;100.00;-17609.17;105185;1264;59673;-51
2024/03/03 01:27:05;;;;;;;7.10;3.20;;;;;;;-147.86;100.00;-17609.17;105155;1262;59988;-55
2024/03/03 01:29:33;;;;;;;12.50;3.50;;;;;;;-147.86;100.00;-17609.17;104996;1263;73123;-58
2024/03/03 01:32:03;;;;;;;4.60;3.40;;;;;;;-147.86;100.00;-17609.17;105757;1252;62391;-51
2024/03/03 01:34:32;;;;;;;16.10;4.40;;;;;;;-147.86;100.00;-17609.17;105693;1254;71387;-56
2024/03/03 01:36:59;;;;;;;11.50;3.70;;;;;;;-147.86;100.00;-17609.17;105684;1253;59816;-53
2024/03/03 01:39:27;;;;;;;17.10;4.20;;;;;;;-147.86;100.00;-17609.17;105852;1253;59960;-52
2024/03/03 01:41:55;;;;;;;6.90;3.30;;;;;;;-147.86;100.00;-17609.17;105849;1256;71826;-52
2024/03/03 01:44:23;;;;;;;10.70;3.70;;;;;;;-147.86;100.00;-17609.17;105699;1253;63654;-55
2024/03/03 01:46:51;;;;;;;9.10;3.40;;;;;;;-147.86;100.00;-17609.17;105620;1254;71441;-54
2024/03/03 01:49:19;;;;;;;14.10;3.70;;;;;;;-147.86;100.00;-17609.17;105742;1253;60997;-55
2024/03/03 01:51:47;;;;;;;5.20;3.70;;;;;;;-147.86;100.00;-17609.17;105640;1260;59671;-52
2024/03/03 01:54:15;;;;;;;13.50;4.00;;;;;;;-147.86;100.00;-17609.17;105685;1253;73006;-55
2024/03/03 01:56:43;;;;;;;7.00;3.80;;;;;;;-147.86;100.00;-17609.17;105667;1253;64483;-50
2024/03/03 01:59:12;;;;;;;12.30;3.70;;;;;;;-147.86;100.00;-17609.17;105739;1253;72607;-56
2024/03/03 02:01:39;;;;;;;6.70;3.40;;;;;;;-147.86;100.00;-17609.17;105693;1259;60150;-52
2024/03/03 02:04:07;;;;;;;9.80;3.40;;;;;;;-147.86;100.00;-17609.17;105671;1258;59697;-54
2024/03/03 02:06:35;;;;;;;6.60;3.90;;;;;;;-147.86;100.00;-17609.17;105851;1253;73024;-53
2024/03/03 02:09:06;;;;;;;8.50;4.00;;;;;;;-147.86;100.00;-17609.17;105669;1254;63247;-54
2024/03/03 02:11:34;;;;;;;7.60;4.00;;;;;;;-147.86;100.00;-17609.17;105709;1253;71436;-51
2024/03/03 02:14:01;;;;;;;7.00;3.60;;;;;;;-147.86;100.00;-17609.17;105656;1258;59665;-52
2024/03/03 02:16:29;;;;;;;6.20;3.20;;;;;;;-147.86;100.00;-17609.17;105702;1257;59556;-51
2024/03/03 02:18:57;;;;;;;13.50;4.10;;;;;;;-147.86;100.00;-17609.17;105629;1253;73059;-57
2024/03/03 02:21:25;;;;;;;10.40;4.10;;;;;;;-147.86;100.00;-17609.17;105878;1253;63119;-53
2024/03/03 02:23:52;;;;;;;11.80;3.70;;;;;;;-147.86;100.00;-17609.17;105790;1253;71447;-54
2024/03/03 02:26:21;;;;;;;11.60;3.90;;;;;;;-147.86;100.00;-17609.17;105651;1253;59631;-55
2024/03/03 02:28:49;;;;;;;14.70;4.10;;;;;;;-147.86;100.00;-17609.17;105741;1253;60047;-53
2024/03/03 02:31:18;;;;;;;7.30;3.80;;;;;;;-147.86;100.00;-17609.17;105758;1251;73007;-52
2024/03/03 02:33:46;;;;;;;14.60;4.20;;;;;;;-147.86;100.00;-17609.17;105932;1253;63103;-54
2024/03/03 02:36:14;;;;;;;9.60;4.20;;;;;;;-147.86;100.00;-17609.17;105825;1257;72596;-54
2024/03/03 02:38:43;;;;;;;19.40;3.80;;;;;;;-147.86;100.00;-17609.17;105863;1253;60018;-53
2024/03/03 02:41:11;;;;;;;15.40;4.60;;;;;;;-147.86;100.00;-17609.17;105889;1257;59714;-50
2024/03/03 02:43:39;;;;;;;8.70;3.90;;;;;;;-147.86;100.00;-17609.17;105693;1252;72240;-55
2024/03/03 02:46:06;;;;;;;9.30;4.00;;;;;;;-147.86;100.00;-17609.17;105847;1251;63207;-53
2024/03/03 03:04:08;;;;;;;10.70;4.10;;;;;;;-147.86;100.00;-17609.17;102656;1292;600091;-51
2024/03/03 03:06:36;;;;;;;13.00;4.50;;;;;;;-147.86;100.00;-17609.17;104824;1271;59345;-53
2024/03/03 03:09:04;;;;;;;14.90;5.00;;;;;;;-147.86;100.00;-17609.17;104875;1271;59335;-56
2024/03/03 03:11:32;;;;;;;17.20;5.10;;;;;;;-147.86;100.00;-17609.17;104719;1266;72341;-51
2024/03/03 03:14:00;;;;;;;14.10;4.90;;;;;;;-147.86;100.00;-17609.17;104852;1272;63132;-56
2024/03/03 03:16:27;;;;;;;8.90;3.90;;;;;;;-147.86;100.00;-17609.17;105575;1258;71401;-52
2024/03/03 03:18:56;;;;;;;11.30;4.50;;;;;;;-147.86;100.00;-17609.17;105551;1258;275068;-53
2024/03/03 03:21:27;;;;;;;12.30;4.20;;;;;;;-147.86;100.00;-17609.17;105761;1254;60230;-51
2024/03/03 03:23:55;;;;;;;9.40;4.20;;;;;;;-147.86;100.00;-17609.17;105731;1255;70956;-56
2024/03/03 03:26:22;;;;;;;10.70;4.30;;;;;;;-147.86;100.00;-17609.17;105655;1255;63104;-55
2024/03/03 03:28:50;;;;;;;10.00;4.00;;;;;;;-147.86;100.00;-17609.17;105670;1254;71395;-54
2024/03/03 03:31:18;;;;;;;14.50;4.10;;;;;;;-147.86;100.00;-17609.17;105811;1258;59686;-56
2024/03/03 03:33:46;;;;;;;4.80;3.30;;;;;;;-147.86;100.00;-17609.17;105765;1258;60457;-55
2024/03/03 03:36:13;;;;;;;11.10;3.60;;;;;;;-147.86;100.00;-17609.17;105737;1257;71805;-52
2024/03/03 03:38:41;;;;;;;12.70;3.60;;;;;;;-147.86;100.00;-17609.17;105715;1254;64434;-55
2024/03/03 03:41:08;;;;;;;7.30;3.70;;;;;;;-147.86;100.00;-17609.17;105722;1259;71428;-53
2024/03/03 03:43:36;;;;;;;6.20;3.40;;;;;;;-147.86;100.00;-17609.17;105697;1259;59747;-55
2024/03/03 03:46:04;;;;;;;7.90;3.60;;;;;;;-147.86;100.00;-17609.17;105856;1257;60043;-52
2024/03/03 03:48:31;;;;;;;9.90;3.90;;;;;;;-147.86;100.00;-17609.17;105729;1258;73033;-54
2024/03/03 03:50:59;;;;;;;5.90;3.60;;;;;;;-147.86;100.00;-17609.17;105755;1253;63177;-54
2024/03/03 03:53:27;;;;;;;7.50;3.50;;;;;;;-147.86;100.00;-17609.17;105721;1258;72654;-54
2024/03/03 03:55:54;;;;;;;7.00;3.60;;;;;;;-147.86;100.00;-17609.17;105839;1258;59952;-55
2024/03/03 03:58:22;;;;;;;5.30;3.00;;;;;;;-147.86;100.00;-17609.17;105729;1258;59706;-55
2024/03/03 04:00:50;;;;;;;9.70;3.90;;;;;;;-147.86;100.00;-17609.17;105672;1259;71756;-54
2024/03/03 04:03:18;;;;;;;7.60;3.40;;;;;;;-147.86;100.00;-17609.17;105671;1253;63283;-51
2024/03/03 04:05:45;;;;;;;9.70;3.90;;;;;;;-147.86;100.00;-17609.17;105794;1260;71324;-52
2024/03/03 04:08:13;;;;;;;12.40;4.20;;;;;;;-147.86;100.00;-17609.17;105621;1259;59753;-54
2024/03/03 04:10:41;;;;;;;10.80;3.70;;;;;;;-147.86;100.00;-17609.17;105676;1258;59945;-53
2024/03/03 04:13:09;;;;;;;8.90;3.90;;;;;;;-147.86;100.00;-17609.17;105695;1259;72487;-56
2024/03/03 04:15:36;;;;;;;7.90;3.80;;;;;;;-147.86;100.00;-17609.17;105710;1262;63145;-54
2024/03/03 04:18:04;;;;;;;10.20;3.40;;;;;;;-147.86;100.00;-17609.17;105641;1257;72609;-56
2024/03/03 04:20:32;;;;;;;7.80;3.30;;;;;;;-147.86;100.00;-17609.17;105659;1258;59814;-54
2024/03/03 04:23:00;;;;;;;7.40;3.30;;;;;;;-147.86;100.00;-17609.17;105613;1258;59669;-55
2024/03/03 04:25:28;;;;;;;10.60;3.40;;;;;;;-147.86;100.00;-17609.17;105842;1264;71470;-52
2024/03/03 04:27:56;;;;;;;7.00;3.50;;;;;;;-147.86;100.00;-17609.17;105662;1260;64062;-50
2024/03/03 04:30:25;;;;;;;8.30;3.70;;;;;;;-147.86;100.00;-17609.17;105701;1260;71366;-53
2024/03/03 04:32:53;;;;;;;11.10;3.60;;;;;;;-147.86;100.00;-17609.17;105719;1254;59868;-55
2024/03/03 04:35:20;;;;;;;7.30;3.20;;;;;;;-147.86;100.00;-17609.17;105640;1259;60098;-58
2024/03/03 04:37:48;;;;;;;10.30;5.20;;;;;;;-147.86;100.00;-17609.17;105849;1257;72267;-55
2024/03/03 04:40:16;;;;;;;7.30;4.00;;;;;;;-147.86;100.00;-17609.17;105700;1260;62206;-54
2024/03/03 04:42:45;;;;;;;6.90;2.90;;;;;;;-147.86;100.00;-17609.17;105618;1259;71559;-54
2024/03/03 04:45:14;;;;;;;6.30;3.50;;;;;;;-147.86;100.00;-17609.17;105671;1259;59756;-54
2024/03/03 04:47:42;;;;;;;6.00;3.20;;;;;;;-147.86;100.00;-17609.17;105661;1258;59715;-54
2024/03/03 04:50:10;;;;;;;5.50;3.20;;;;;;;-147.86;100.00;-17609.17;105667;1254;71812;-56
2024/03/03 04:52:38;;;;;;;5.00;3.50;;;;;;;-147.86;100.00;-17609.17;105689;1259;63669;-52
2024/03/03 04:55:06;;;;;;;4.60;2.90;;;;;;;-147.86;100.00;-17609.17;105637;1260;72672;-54
2024/03/03 04:57:36;;;;;;;12.60;3.50;;;;;;;-147.86;100.00;-17609.17;105662;1258;59686;-52
2024/03/03 05:00:08;;;;;;;9.70;3.10;;;;;;;-147.86;100.00;-17609.17;105657;1268;59639;-53
2024/03/03 05:02:36;;;;;;;5.90;3.60;;;;;;;-147.86;100.00;-17609.17;105641;1260;72761;-52
2024/03/03 05:05:04;;;;;;;7.60;3.70;;;;;;;-147.86;100.00;-17609.17;105679;1258;64441;-54
2024/03/03 05:07:33;;;;;;;6.50;3.50;;;;;;;-147.86;100.00;-17609.17;105693;1254;71407;-54
2024/03/03 05:10:01;;;;;;;7.90;2.80;;;;;;;-147.86;100.00;-17609.17;105677;1259;59871;-51
2024/03/03 05:12:29;;;;;;;7.70;3.40;;;;;;;-147.86;100.00;-17609.17;105663;1258;59709;-55
2024/03/03 05:14:57;;;;;;;7.70;3.00;;;;;;;-147.86;100.00;-17609.17;105643;1258;72266;-51
2024/03/03 05:17:24;;;;;;;5.40;3.10;;;;;;;-147.86;100.00;-17609.17;105754;1253;63228;-54
2024/03/03 05:19:52;;;;;;;9.20;3.20;;;;;;;-147.86;100.00;-17609.17;105706;1259;71357;-56
2024/03/03 05:22:20;;;;;;;6.00;2.80;;;;;;;-147.86;100.00;-17609.17;105684;1259;59816;-55
2024/03/03 05:24:47;;;;;;;4.90;2.80;;;;;;;-147.86;100.00;-17609.17;105637;1260;59667;-51
2024/03/03 05:27:16;;;;;;;8.30;3.20;;;;;;;-147.86;100.00;-17609.17;105656;1254;72993;-55
2024/03/03 05:29:44;;;;;;;6.00;3.20;;;;;;;-147.86;100.00;-17609.17;105658;1258;63500;-49
2024/03/03 05:32:13;;;;;;;11.40;3.10;;;;;;;-147.86;100.00;-17609.17;105711;1259;71430;-53
2024/03/03 05:34:40;;;;;;;4.30;3.10;;;;;;;-147.86;100.00;-17609.17;105696;1254;59641;-51
2024/03/03 05:37:10;;;;;;;6.10;3.20;;;;;;;-147.86;100.00;-17609.17;105669;1257;59669;-52
2024/03/03 05:39:37;;;;;;;5.80;3.50;;;;;;;-147.86;100.00;-17609.17;105678;1258;73023;-52
2024/03/03 05:42:05;;;;;;;9.50;3.60;;;;;;;-147.86;100.00;-17609.17;105706;1254;63277;-57
2024/03/03 05:44:34;;;;;;;5.50;3.20;;;;;;;-147.86;100.00;-17609.17;105673;1255;71433;-54
2024/03/03 05:47:05;;;;;;;18.80;3.80;;;;;;;-147.86;100.00;-17609.17;105698;1258;59765;-51
2024/03/03 05:49:39;;;;;;;10.60;3.50;;;;;;;-147.86;100.00;-17609.17;105696;1259;59664;-51
2024/03/03 05:52:07;;;;;;;8.20;3.20;;;;;;;-147.86;100.00;-17609.17;105670;1254;72987;-52
2024/03/03 05:54:36;;;;;;;6.20;3.00;;;;;;;-147.86;100.00;-17609.17;105708;1259;64445;-53
2024/03/03 05:57:05;;;;;;;10.00;3.00;;;;;;;-147.86;100.00;-17609.17;105643;1259;70625;-57
2024/03/03 05:59:33;;;;;;;8.90;3.30;;;;;;;-147.86;100.00;-17609.17;105708;1260;59741;-53
2024/03/03 06:02:01;;;;;;;3.40;3.10;;;;;;;-147.86;100.00;-17609.17;105673;1254;59734;-55
2024/03/03 06:04:29;;;;;;;7.60;4.70;;;;;;;-147.86;100.00;-17609.17;105704;1262;71802;-53
2024/03/03 06:06:57;;;;;;;8.10;3.80;;;;;;;-147.86;100.00;-17609.17;105702;1258;64395;-52
2024/03/03 06:09:25;;;;;;;6.60;3.50;;;;;;;-147.86;100.00;-17609.17;105643;1254;72759;-54
2024/03/03 06:11:53;;;;;;;5.50;3.20;;;;;;;-147.86;100.00;-17609.17;105656;1253;60774;-59
2024/03/03 06:14:21;;;;;;;4.70;3.00;;;;;;;-147.86;100.00;-17609.17;105672;1258;60069;-52
2024/03/03 06:16:48;;;;;;;6.80;4.10;;;;;;;-147.86;100.00;-17609.17;105680;1260;71772;-56
2024/03/03 06:19:20;;;;;;;11.40;8.60;;;;;;;-147.86;100.00;-17609.17;105797;1254;63160;-56
2024/03/03 06:21:50;;;;;;;3.40;3.10;;;;;;;-147.86;100.00;-17609.17;105631;1254;71558;-54
2024/03/03 06:24:19;;;;;;;4.10;3.10;;;;;;;-147.86;100.00;-17609.17;105858;1253;59744;-55
2024/03/03 06:26:46;;;;;;;3.90;2.80;;;;;;;-147.86;100.00;-17609.17;105714;1258;59615;-56
2024/03/03 06:29:14;;;;;;;4.10;2.50;;;;;;;-147.86;100.00;-17609.17;105683;1253;71888;-53
2024/03/03 06:31:44;;;;;;;9.00;3.00;;;;;;;-147.86;100.00;-17609.17;105637;1256;63133;-53
2024/03/03 06:34:12;;;;;;;18.60;3.80;;;;;;;-147.86;100.00;-17609.17;105691;1257;72671;-52
2024/03/03 06:36:40;;;;;;;11.50;3.50;;;;;;;-147.86;100.00;-17609.17;105659;1254;59760;-51
2024/03/03 06:39:12;;;;;;;8.70;3.10;;;;;;;-147.86;100.00;-17609.17;105647;1260;59730;-57
2024/03/03 06:41:42;;;;;;;4.80;3.00;;;;;;;-147.86;100.00;-17558.96;105684;1257;71756;-55
2024/03/03 06:44:12;;;;;;;5.90;3.50;;;;;;;-147.86;100.00;-17311.66;105701;1254;63261;-52
2024/03/03 06:46:44;;;;;;;8.40;3.80;;;;;;;-147.86;100.00;-15584.09;105851;1254;71448;-57
2024/03/03 06:49:11;;;;;;;5.10;3.10;;;;;;;-147.86;99.97;-12225.51;105694;1254;59644;-55
2024/03/03 06:51:39;;;;;;;6.60;2.80;;;;;;;-147.86;99.81;-8814.71;105666;1260;59701;-57
2024/03/03 06:54:07;;;;;;;11.90;3.00;;;;;;;-147.86;99.55;-7330.77;105638;1254;71796;-58
2024/03/03 06:56:35;;;;;;;3.40;3.00;;;;;;;-147.86;99.42;-6390.62;105817;1254;63512;-53
2024/03/03 06:59:03;;;;;;;8.70;2.90;;;;;;;-147.86;98.89;-4460.17;105686;1266;71382;-54
2024/03/03 07:01:31;;;;;;;8.90;3.30;;;;;;;-147.86;98.23;-2578.13;105670;1254;59769;-52
2024/03/03 07:06:46;;;;;;;10.00;3.90;;;;;;;-147.86;98.48;-1636.98;105680;1261;73049;-54
2024/03/03 07:09:14;;;;;;;9.80;3.50;;;;;;;-147.86;97.80;48.13;105700;1257;64509;-51
2024/03/03 07:11:42;;;;;;;8.10;3.50;;;;;;;-147.86;96.13;5157.64;105728;1257;72629;-51
2024/03/03 07:14:10;;;;;;;15.80;3.50;;;;;;;-147.86;96.07;8831.82;105678;1254;60550;-55
2024/03/03 07:16:38;;;;;;;7.80;2.90;;;;;;;-147.86;95.44;10422.35;105837;1257;60438;-55
2024/03/03 07:19:05;;;;;;;8.10;3.10;;;;;;;-147.86;93.30;20126.90;105669;1254;72671;-51
2024/03/03 07:21:33;;;;;;;7.40;2.90;;;;;;;-147.86;91.87;30218.31;105653;1254;64454;-51
2024/03/03 07:24:01;;;;;;;7.20;3.70;;;;;;;-147.86;90.24;39384.86;105629;1254;71469;-53
2024/03/03 07:26:29;;;;;;;9.60;3.80;;;;;;;-147.86;90.11;41571.34;105672;1258;60558;-51
2024/03/03 07:28:57;;;;;;;6.90;3.10;;;;;;;-147.86;89.69;42759.45;105640;1257;60358;-54
2024/03/03 07:31:24;;;;;;;7.70;3.00;;;;;;;-147.86;89.83;42953.66;105692;1257;72639;-55
2024/03/03 07:33:52;;;;;;;4.90;2.30;;;;;;;-147.86;86.94;44056.43;105653;1259;64294;-53
2024/03/03 07:36:20;;;;;;;5.70;3.30;;;;;;;-147.86;86.21;44707.02;105610;1255;71993;-57
2024/03/03 07:38:48;;;;;;;8.00;3.10;;;;;;;-147.86;86.32;44878.20;105677;1255;60485;-56
2024/03/03 07:41:15;;;;;;;7.60;3.10;;;;;;;-147.86;86.87;44938.14;105682;1257;60556;-51
2024/03/03 07:43:43;;;;;;;9.00;3.30;;;;;;;-147.86;86.64;44940.88;105592;1258;72640;-57
2024/03/03 07:46:11;;;;;;;4.60;2.90;;;;;;;-147.86;85.71;45063.89;105555;1257;63134;-54
2024/03/03 07:48:40;;;;;;;5.90;2.80;;;;;;;-147.86;85.23;45161.05;105684;1260;72655;-54
2024/03/03 07:51:08;;;;;;;4.40;2.90;;;;;;;-147.86;85.16;45187.30;105744;1257;60408;-57
2024/03/03 07:53:35;;;;;;;8.50;3.70;;;;;;;-147.86;86.23;45166.14;105616;1254;60613;-54
2024/03/03 07:56:04;;;;;;;3.90;3.00;;;;;;;-147.86;85.20;45188.09;105687;1255;73809;-50
2024/03/03 07:58:36;;;;;;;7.80;3.90;;;;;;;-147.86;84.78;45240.19;105685;1255;62254;-54
2024/03/03 08:01:05;;;;;;;5.70;3.30;;;;;;;-147.86;85.14;45228.04;105827;1257;71334;-52
2024/03/03 08:03:33;;;;;;;5.50;3.70;;;;;;;-147.86;84.53;45253.91;105685;1259;60559;-54
2024/03/03 08:06:01;;;;;;;7.80;4.20;;;;;;;-147.86;85.17;45272.32;105853;1257;60434;-50
2024/03/03 08:08:29;;;;;;;9.80;3.00;;;;;;;-147.86;85.47;45230.00;105828;1256;72564;-52
2024/03/03 08:10:57;;;;;;;14.20;3.90;;;;;;;-147.86;84.49;45252.34;105660;1257;63210;-53
2024/03/03 08:13:24;;;;;;;11.30;4.10;;;;;;;-147.86;84.54;45283.29;105661;1258;72614;-53
2024/03/03 08:15:52;;;;;;;6.50;3.80;;;;;;;-147.86;85.49;45264.48;105676;1257;60553;-52
2024/03/03 08:18:20;;;;;;;5.60;3.50;;;;;;;-147.86;86.49;45193.57;105693;1261;60450;-51
2024/03/03 08:20:48;;;;;;;6.00;3.40;;;;;;;-147.86;86.29;45150.87;105635;1254;72638;-56
2024/03/03 08:23:15;;;;;;;4.80;3.40;;;;;;;-147.86;84.03;45209.24;105652;1255;64368;-57
2024/03/03 08:25:43;;;;;;;10.70;3.70;;;;;;;-147.86;82.75;45315.41;105842;1257;71653;-54
2024/03/03 08:28:12;;;;;;;6.90;3.60;;;;;;;-147.86;82.71;45359.69;105691;1258;60520;-57
2024/03/03 08:30:40;;;;;;;7.40;4.00;;;;;;;-147.86;82.79;45389.07;105703;1254;60457;-57
2024/03/03 08:33:07;;;;;;;8.80;3.20;;;;;;;-147.86;84.02;45367.91;105660;1254;72570;-50
2024/03/03 08:35:35;;;;;;;10.00;3.10;;;;;;;-147.86;84.18;45362.82;105726;1257;63291;-55
2024/03/03 08:38:04;;;;;;;9.10;3.40;;;;;;;-147.86;82.78;45363.60;105631;1259;71760;-55
2024/03/03 08:40:31;;;;;;;25.30;9.90;;;;;;;-147.86;82.53;45426.68;105691;1258;60611;-57
2024/03/03 08:42:59;;;;;;;9.80;4.50;;;;;;;-147.86;81.80;45433.34;105691;1259;60394;-55
2024/03/03 08:45:27;;;;;;;10.90;4.20;;;;;;;-147.86;80.56;45499.16;105719;1254;72595;-53
2024/03/03 08:47:55;;;;;;;6.60;3.90;;;;;;;-147.86;81.39;45530.12;105823;1257;66241;-59
2024/03/03 08:50:23;;;;;;;9.00;3.40;;;;;;;-147.86;79.74;45559.90;105675;1258;72989;-55
2024/03/03 08:52:50;;;;;;;15.00;3.40;;;;;;;-147.86;79.65;45593.20;105652;1259;60554;-55
2024/03/03 08:55:18;;;;;;;13.10;2.90;;;;;;;-147.86;78.85;45645.70;105666;1253;60832;-57
2024/03/03 08:57:46;;;;;;;5.00;2.80;;;;;;;-147.86;75.37;45688.41;105682;1254;73890;-56
2024/03/03 09:00:14;;;;;;;6.10;3.00;;;;;;;-147.86;73.56;45718.98;105741;1254;63365;-52
2024/03/03 09:02:42;;;;;;;10.60;3.50;;;;;;;-147.86;73.42;45747.97;105718;1254;71397;-54
2024/03/03 09:05:11;;;;;;;8.60;3.20;;;;;;;-147.86;71.65;45782.84;105678;1254;60617;-55
2024/03/03 09:07:41;;;;;;;7.80;2.90;;;;;;;-147.86;69.76;45822.02;105662;1254;60555;-53
2024/03/03 09:10:09;;;;;;;14.40;4.70;;;;;;;-147.86;68.13;45860.03;105658;1260;73750;-58
2024/03/03 09:12:37;;;;;;;12.60;2.90;;;;;;;-147.86;67.16;45909.80;105675;1255;64325;-59
2024/03/03 09:15:06;;;;;;;3.10;2.80;;;;;;;-147.86;66.86;45949.38;105651;1258;73046;-52
2024/03/03 09:17:34;;;;;;;5.40;3.00;;;;;;;-147.86;65.94;45972.49;105669;1258;60565;-52
2024/03/03 09:20:05;;;;;;;11.40;2.50;;;;;;;-147.86;65.92;46010.11;105695;1254;60491;-53
2024/03/03 09:22:33;;;;;;;5.20;3.00;;;;;;;-147.86;65.37;46046.16;105708;1253;72555;-50
2024/03/03 09:25:04;;;;;;;6.60;2.90;;;;;;;-147.86;65.01;46085.74;105704;1254;63902;-53
2024/03/03 09:27:32;;;;;;;7.70;3.10;;;;;;;-147.86;65.30;46123.75;105666;1253;74711;-53
2024/03/03 09:30:01;;;;;;;7.20;2.70;;;;;;;-147.86;66.32;46153.53;105687;1257;60569;-55
2024/03/03 09:32:32;;;;;;;5.20;3.00;;;;;;;-147.86;65.34;46167.64;105670;1259;60443;-56
2024/03/03 09:35:00;;;;;;;5.70;2.70;;;;;;;-147.86;63.91;46209.18;105667;1257;73834;-53
2024/03/03 09:37:27;;;;;;;10.70;2.60;;;;;;;-147.86;64.06;46252.29;105654;1257;64326;-55
2024/03/03 09:39:55;;;;;;;10.60;2.70;;;;;;;-147.86;64.64;46278.15;105688;1255;71449;-57
2024/03/03 09:42:25;;;;;;;10.70;3.30;;;;;;;-147.86;64.24;46291.08;105695;1257;60463;-53
2024/03/03 09:44:53;;;;;;;8.40;3.70;;;;;;;-147.86;63.59;46318.51;105631;1253;60571;-56
2024/03/03 09:47:22;;;;;;;13.10;3.50;;;;;;;-147.86;62.16;46360.84;105602;1254;74349;-52
2024/03/03 09:49:50;;;;;;;13.20;3.20;;;;;;;-147.86;61.89;46398.06;105688;1253;63212;-53
2024/03/03 09:52:19;;;;;;;7.70;3.80;;;;;;;-147.86;63.39;46427.07;105606;1253;72406;-53
2024/03/03 09:54:46;;;;;;;8.50;3.10;;;;;;;-147.86;64.50;46438.43;105663;1254;61577;-58
2024/03/03 09:57:15;;;;;;;7.50;2.60;;;;;;;-147.86;61.88;46457.24;105650;1254;60451;-57
2024/03/03 09:59:45;;;;;;;10.00;2.40;;;;;;;-147.86;60.17;46509.37;105704;1254;72623;-54
2024/03/03 10:02:15;;;;;;;4.20;3.00;;;;;;;-147.86;60.16;46546.60;105645;1254;64083;-53
2024/03/03 10:04:47;;;;;;;7.10;3.00;;;;;;;-147.86;60.63;46587.36;105691;1253;72148;-57
2024/03/03 10:07:21;;;;;;;18.30;4.90;;;;;;;-147.86;60.64;46614.40;105645;1253;60472;-54
2024/03/03 10:09:59;;;;;;;7.60;3.20;;;;;;;-147.86;60.62;46656.73;105691;1253;60403;-52
2024/03/03 10:12:27;;;;;;;11.30;3.70;;;;;;;-147.86;59.69;46673.58;105719;1254;72578;-54
2024/03/03 10:14:56;;;;;;;10.60;3.30;;;;;;;-147.86;60.51;46708.46;105659;1254;65079;-52
2024/03/03 10:17:25;;;;;;;13.80;3.30;;;;;;;-147.86;60.37;46731.58;105684;1254;70427;-51
2024/03/03 10:19:59;;;;;;;6.30;2.90;;;;;;;-147.86;59.30;46770.77;105724;1254;60502;-51
2024/03/03 10:22:27;;;;;;;5.00;2.70;;;;;;;-147.86;59.89;46799.78;105667;1258;60448;-58
2024/03/03 10:25:09;;;;;;;8.10;2.90;;;;;;;-147.86;59.38;46820.55;105663;1253;73225;-55
2024/03/03 10:27:39;;;;;;;8.70;3.00;;;;;;;-147.86;58.48;46855.43;105681;1258;66724;-53
2024/03/03 10:30:09;;;;;;;12.40;6.60;;;;;;;-147.86;58.77;46889.14;105693;1253;72265;-52
2024/03/03 10:32:38;;;;;;;6.10;3.70;;;;;;;-147.86;59.37;46902.86;105709;1258;60728;-53
2024/03/03 10:35:10;;;;;;;9.20;2.80;;;;;;;-147.86;58.22;46929.51;105668;1258;61063;-56
2024/03/03 10:37:51;;;;;;;7.70;2.80;;;;;;;-147.86;59.48;46965.96;105645;1258;74124;-52
2024/03/03 10:40:20;;;;;;;8.00;2.40;;;;;;;-147.86;58.70;46967.52;105700;1258;66713;-56
2024/03/03 10:42:48;;;;;;;6.20;3.00;;;;;;;-147.86;58.50;46998.88;105676;1254;74964;-54
2024/03/03 10:45:16;;;;;;;11.20;2.90;;;;;;;-147.86;58.76;47012.60;105694;1259;60560;-56
2024/03/03 10:47:44;;;;;;;6.80;3.10;;;;;;;-147.86;58.64;47037.69;105661;1259;60349;-57
2024/03/03 10:50:15;;;;;;;3.00;2.70;;;;;;;-147.86;58.26;47046.71;105644;1253;73894;-55
2024/03/03 10:52:43;;;;;;;7.90;2.80;;;;;;;-147.86;57.80;47068.65;105692;1258;65302;-53
2024/03/03 10:55:13;;;;;;;4.50;2.80;;;;;;;-147.86;58.39;47098.45;105709;1254;72229;-55
2024/03/03 10:57:45;;;;;;;5.40;2.90;;;;;;;-147.86;58.80;47105.50;105652;1253;61222;-55
2024/03/03 11:00:22;;;;;;;9.50;3.00;;;;;;;-147.86;58.56;47103.93;105678;1253;60503;-53
2024/03/03 11:02:51;;;;;;;4.20;3.20;;;;;;;-147.86;58.25;47134.90;105688;1255;73892;-55
2024/03/03 11:05:19;;;;;;;7.30;3.40;;;;;;;-147.86;58.89;47140.77;105662;1258;64309;-51
2024/03/03 11:07:48;;;;;;;6.20;4.40;;;;;;;-147.86;59.09;47145.87;105618;1253;73194;-53
2024/03/03 11:10:17;;;;;;;5.20;3.30;;;;;;;-147.86;59.68;47141.56;105746;1257;61186;-51
2024/03/03 11:12:49;;;;;;;6.90;3.10;;;;;;;-147.86;58.40;47143.52;105687;1253;60453;-56
2024/03/03 11:15:19;;;;;;;7.10;3.30;;;;;;;-147.86;58.16;47173.70;105715;1253;76004;-56
2024/03/03 11:17:49;;;;;;;3.90;3.00;;;;;;;-147.86;56.69;47199.18;105679;1258;66773;-54
2024/03/03 11:20:21;;;;;;;5.60;3.30;;;;;;;-147.86;55.70;47242.30;105662;1255;73626;-50
2024/03/03 11:23:04;;;;;;;6.20;3.40;;;;;;;-147.86;56.81;47275.61;105682;1259;60473;-52
2024/03/03 11:25:34;;;;;;;30.00;13.30;;;;;;;-147.86;57.34;47292.86;105716;1253;62447;-59